sensor_id;sensor_type;location;lat;lon;timestamp;temperature;humidity
18593;DHT22;9426;54.118;17.948;2023-04-03T00:03:54;-0.30;99.90
18593;DHT22;9426;54.118;17.948;2023-04-03T00:09:18;-0.40;99.90
18593;DHT22;9426;54.118;17.948;2023-04-03T00:14:42;-0.40;99.90
18593;DHT22;9426;54.118;17.948;2023-04-03T00:20:08;-0.50;99.90
18593;DHT22;9426;54.118;17.948;2023-04-03T00:25:31;-0.60;99.90
18593;DHT22;9426;54.118;17.948;2023-04-03T00:30:54;-0.60;99.90
18593;DHT22;9426;54.118;17.948;2023-04-03T00:36:19;-0.60;99.90
18593;DHT22;9426;54.118;17.948;2023-04-03T00:41:42;-0.50;99.90
18593;DHT22;9426;54.118;17.948;2023-04-03T00:47:09;-0.60;99.90
18593;DHT22;9426;54.118;17.948;2023-04-03T00:52:37;-0.70;99.90
18593;DHT22;9426;54.118;17.948;2023-04-03T00:58:02;-0.70;99.90
18593;DHT22;9426;54.118;17.948;2023-04-03T01:03:25;-0.60;99.90
18593;DHT22;9426;54.118;17.948;2023-04-03T01:08:51;-0.60;99.90
18593;DHT22;9426;54.118;17.948;2023-04-03T01:14:15;-0.60;99.90
18593;DHT22;9426;54.118;17.948;2023-04-03T01:19:42;-0.60;99.90
18593;DHT22;9426;54.118;17.948;2023-04-03T01:25:12;-0.70;99.90
18593;DHT22;9426;54.118;17.948;2023-04-03T01:30:40;-0.70;99.90
18593;DHT22;9426;54.118;17.948;2023-04-03T01:36:08;-0.60;99.90
18593;DHT22;9426;54.118;17.948;2023-04-03T01:41:32;-0.60;99.90
18593;DHT22;9426;54.118;17.948;2023-04-03T01:47:05;-0.60;99.90
18593;DHT22;9426;54.118;17.948;2023-04-03T01:52:32;-0.60;99.90
18593;DHT22;9426;54.118;17.948;2023-04-03T01:57:56;-0.80;99.90
18593;DHT22;9426;54.118;17.948;2023-04-03T02:03:19;-0.80;99.90
18593;DHT22;9426;54.118;17.948;2023-04-03T02:08:45;-0.60;99.90
18593;DHT22;9426;54.118;17.948;2023-04-03T02:14:09;-0.70;99.90
18593;DHT22;9426;54.118;17.948;2023-04-03T02:19:32;-0.60;99.90
18593;DHT22;9426;54.118;17.948;2023-04-03T02:24:58;-0.50;99.90
18593;DHT22;9426;54.118;17.948;2023-04-03T02:30:21;-0.40;99.90
18593;DHT22;9426;54.118;17.948;2023-04-03T02:35:46;-0.30;99.90
18593;DHT22;9426;54.118;17.948;2023-04-03T02:41:19;-0.40;99.90
18593;DHT22;9426;54.118;17.948;2023-04-03T02:46:45;-0.40;99.90
18593;DHT22;9426;54.118;17.948;2023-04-03T02:52:08;-0.60;99.90
18593;DHT22;9426;54.118;17.948;2023-04-03T02:57:34;-0.60;99.90
18593;DHT22;9426;54.118;17.948;2023-04-03T03:02:58;-0.60;99.90
18593;DHT22;9426;54.118;17.948;2023-04-03T03:08:21;-0.70;99.90
18593;DHT22;9426;54.118;17.948;2023-04-03T03:13:47;-0.50;99.90
18593;DHT22;9426;54.118;17.948;2023-04-03T03:19:10;-0.40;99.90
18593;DHT22;9426;54.118;17.948;2023-04-03T03:24:34;-0.50;99.90
18593;DHT22;9426;54.118;17.948;2023-04-03T03:30:00;-0.50;99.90
18593;DHT22;9426;54.118;17.948;2023-04-03T03:35:24;-0.40;99.90
18593;DHT22;9426;54.118;17.948;2023-04-03T03:40:47;-0.30;99.90
18593;DHT22;9426;54.118;17.948;2023-04-03T03:46:15;-0.10;99.90
18593;DHT22;9426;54.118;17.948;2023-04-03T03:51:39;-0.10;99.90
18593;DHT22;9426;54.118;17.948;2023-04-03T03:57:03;-0.10;99.90
18593;DHT22;9426;54.118;17.948;2023-04-03T04:02:28;0.10;99.90
18593;DHT22;9426;54.118;17.948;2023-04-03T04:07:51;0.30;99.90
18593;DHT22;9426;54.118;17.948;2023-04-03T04:13:15;0.30;99.90
18593;DHT22;9426;54.118;17.948;2023-04-03T04:18:41;0.40;99.90
18593;DHT22;9426;54.118;17.948;2023-04-03T04:24:05;0.50;99.90
18593;DHT22;9426;54.118;17.948;2023-04-03T04:29:30;0.60;99.90
18593;DHT22;9426;54.118;17.948;2023-04-03T04:34:59;0.70;99.90
18593;DHT22;9426;54.118;17.948;2023-04-03T04:40:25;0.70;99.90
18593;DHT22;9426;54.118;17.948;2023-04-03T04:46:00;0.80;99.90
18593;DHT22;9426;54.118;17.948;2023-04-03T04:51:28;0.90;99.90
18593;DHT22;9426;54.118;17.948;2023-04-03T04:56:54;0.90;99.90
18593;DHT22;9426;54.118;17.948;2023-04-03T05:02:18;0.90;99.90
18593;DHT22;9426;54.118;17.948;2023-04-03T05:07:43;1.00;99.90
18593;DHT22;9426;54.118;17.948;2023-04-03T05:13:08;1.10;99.90
18593;DHT22;9426;54.118;17.948;2023-04-03T05:18:32;1.30;99.90
18593;DHT22;9426;54.118;17.948;2023-04-03T05:24:03;1.30;99.90
18593;DHT22;9426;54.118;17.948;2023-04-03T05:29:29;1.30;99.90
18593;DHT22;9426;54.118;17.948;2023-04-03T05:34:54;1.40;99.90
18593;DHT22;9426;54.118;17.948;2023-04-03T05:40:21;1.50;99.90
18593;DHT22;9426;54.118;17.948;2023-04-03T05:45:48;1.50;99.90
18593;DHT22;9426;54.118;17.948;2023-04-03T05:51:15;1.70;99.90
18593;DHT22;9426;54.118;17.948;2023-04-03T05:56:43;1.70;99.90
18593;DHT22;9426;54.118;17.948;2023-04-03T06:02:10;1.70;99.90
18593;DHT22;9426;54.118;17.948;2023-04-03T06:07:34;1.60;99.90
18593;DHT22;9426;54.118;17.948;2023-04-03T06:13:00;1.60;99.90
18593;DHT22;9426;54.118;17.948;2023-04-03T06:18:24;1.80;99.90
18593;DHT22;9426;54.118;17.948;2023-04-03T06:23:47;2.10;99.90
18593;DHT22;9426;54.118;17.948;2023-04-03T06:29:13;2.40;99.90
18593;DHT22;9426;54.118;17.948;2023-04-03T06:34:36;2.50;99.90
18593;DHT22;9426;54.118;17.948;2023-04-03T06:40:00;2.70;99.90
18593;DHT22;9426;54.118;17.948;2023-04-03T06:45:25;2.30;99.90
18593;DHT22;9426;54.118;17.948;2023-04-03T06:50:49;2.20;99.90
18593;DHT22;9426;54.118;17.948;2023-04-03T06:56:13;2.20;99.90
18593;DHT22;9426;54.118;17.948;2023-04-03T07:01:38;2.10;99.90
18593;DHT22;9426;54.118;17.948;2023-04-03T07:07:02;2.10;99.90
18593;DHT22;9426;54.118;17.948;2023-04-03T07:12:26;2.20;99.90
18593;DHT22;9426;54.118;17.948;2023-04-03T07:17:51;2.10;99.90
18593;DHT22;9426;54.118;17.948;2023-04-03T07:23:14;2.00;99.90
18593;DHT22;9426;54.118;17.948;2023-04-03T07:28:37;1.90;99.90
18593;DHT22;9426;54.118;17.948;2023-04-03T07:34:04;2.10;99.90
18593;DHT22;9426;54.118;17.948;2023-04-03T07:39:28;2.40;99.90
18593;DHT22;9426;54.118;17.948;2023-04-03T07:44:52;2.40;99.90
18593;DHT22;9426;54.118;17.948;2023-04-03T07:50:17;2.20;99.90
18593;DHT22;9426;54.118;17.948;2023-04-03T07:55:40;2.10;99.90
18593;DHT22;9426;54.118;17.948;2023-04-03T08:01:06;2.40;99.90
18593;DHT22;9426;54.118;17.948;2023-04-03T08:06:31;2.30;99.90
18593;DHT22;9426;54.118;17.948;2023-04-03T08:12:03;2.70;99.90
18593;DHT22;9426;54.118;17.948;2023-04-03T08:17:27;3.40;99.90
18593;DHT22;9426;54.118;17.948;2023-04-03T08:22:52;4.20;99.90
18593;DHT22;9426;54.118;17.948;2023-04-03T08:28:15;4.20;99.90
18593;DHT22;9426;54.118;17.948;2023-04-03T08:33:39;4.10;99.90
18593;DHT22;9426;54.118;17.948;2023-04-03T08:39:04;4.40;99.90
18593;DHT22;9426;54.118;17.948;2023-04-03T08:44:38;4.90;99.60
18593;DHT22;9426;54.118;17.948;2023-04-03T08:50:07;4.70;98.60
18593;DHT22;9426;54.118;17.948;2023-04-03T08:55:40;5.00;97.90
18593;DHT22;9426;54.118;17.948;2023-04-03T09:01:17;5.30;95.80
18593;DHT22;9426;54.118;17.948;2023-04-03T09:06:44;5.60;95.60
18593;DHT22;9426;54.118;17.948;2023-04-03T09:12:18;5.70;93.50
18593;DHT22;9426;54.118;17.948;2023-04-03T09:17:53;5.90;92.80
18593;DHT22;9426;54.118;17.948;2023-04-03T09:23:23;5.80;93.00
18593;DHT22;9426;54.118;17.948;2023-04-03T09:28:49;5.00;91.60
18593;DHT22;9426;54.118;17.948;2023-04-03T09:34:20;4.50;92.90
18593;DHT22;9426;54.118;17.948;2023-04-03T09:39:52;4.60;95.00
18593;DHT22;9426;54.118;17.948;2023-04-03T09:45:24;5.20;93.00
18593;DHT22;9426;54.118;17.948;2023-04-03T09:50:56;5.00;92.90
18593;DHT22;9426;54.118;17.948;2023-04-03T09:56:24;4.80;92.80
18593;DHT22;9426;54.118;17.948;2023-04-03T10:01:59;4.90;92.40
18593;DHT22;9426;54.118;17.948;2023-04-03T10:07:28;4.90;92.60
18593;DHT22;9426;54.118;17.948;2023-04-03T10:13:04;4.70;92.70
18593;DHT22;9426;54.118;17.948;2023-04-03T10:18:36;4.90;93.30
18593;DHT22;9426;54.118;17.948;2023-04-03T10:24:10;5.50;94.40
18593;DHT22;9426;54.118;17.948;2023-04-03T10:29:39;4.70;94.00
18593;DHT22;9426;54.118;17.948;2023-04-03T10:35:11;5.80;94.00
18593;DHT22;9426;54.118;17.948;2023-04-03T10:40:43;5.60;94.60
18593;DHT22;9426;54.118;17.948;2023-04-03T10:46:09;5.00;95.10
18593;DHT22;9426;54.118;17.948;2023-04-03T10:51:42;5.00;97.30
18593;DHT22;9426;54.118;17.948;2023-04-03T10:57:08;5.80;95.50
18593;DHT22;9426;54.118;17.948;2023-04-03T11:02:37;5.90;94.10
18593;DHT22;9426;54.118;17.948;2023-04-03T11:08:10;6.00;94.70
18593;DHT22;9426;54.118;17.948;2023-04-03T11:13:40;5.90;95.10
18593;DHT22;9426;54.118;17.948;2023-04-03T11:19:13;5.60;95.70
18593;DHT22;9426;54.118;17.948;2023-04-03T11:24:42;5.70;97.40
18593;DHT22;9426;54.118;17.948;2023-04-03T11:30:09;5.00;99.90
18593;DHT22;9426;54.118;17.948;2023-04-03T11:35:43;4.30;99.90
18593;DHT22;9426;54.118;17.948;2023-04-03T11:41:10;4.20;99.90
18593;DHT22;9426;54.118;17.948;2023-04-03T11:46:54;4.10;99.90
18593;DHT22;9426;54.118;17.948;2023-04-03T11:58:18;3.90;99.90
18593;DHT22;9426;54.118;17.948;2023-04-03T12:04:07;4.10;99.90
18593;DHT22;9426;54.118;17.948;2023-04-03T12:09:56;4.60;99.90
18593;DHT22;9426;54.118;17.948;2023-04-03T12:15:46;6.50;99.90
18593;DHT22;9426;54.118;17.948;2023-04-03T12:21:13;6.00;99.90
18593;DHT22;9426;54.118;17.948;2023-04-03T12:26:44;5.50;99.90
18593;DHT22;9426;54.118;17.948;2023-04-03T12:32:22;5.30;99.90
18593;DHT22;9426;54.118;17.948;2023-04-03T12:44:00;4.90;99.90
18593;DHT22;9426;54.118;17.948;2023-04-03T12:49:35;6.60;99.90
18593;DHT22;9426;54.118;17.948;2023-04-03T12:55:00;6.40;99.90
18593;DHT22;9426;54.118;17.948;2023-04-03T13:00:29;6.70;98.20
18593;DHT22;9426;54.118;17.948;2023-04-03T13:05:59;6.30;97.30
18593;DHT22;9426;54.118;17.948;2023-04-03T13:11:24;5.60;96.80
18593;DHT22;9426;54.118;17.948;2023-04-03T13:16:57;7.30;93.90
18593;DHT22;9426;54.118;17.948;2023-04-03T13:22:28;6.90;92.60
18593;DHT22;9426;54.118;17.948;2023-04-03T13:27:54;9.20;85.00
18593;DHT22;9426;54.118;17.948;2023-04-03T13:33:26;11.40;70.50
18593;DHT22;9426;54.118;17.948;2023-04-03T13:39:01;9.50;64.00
18593;DHT22;9426;54.118;17.948;2023-04-03T13:44:29;7.20;71.90
18593;DHT22;9426;54.118;17.948;2023-04-03T13:50:02;7.80;71.20
18593;DHT22;9426;54.118;17.948;2023-04-03T13:55:29;6.40;84.00
18593;DHT22;9426;54.118;17.948;2023-04-03T14:00:54;5.10;96.40
18593;DHT22;9426;54.118;17.948;2023-04-03T14:06:19;4.70;99.90
18593;DHT22;9426;54.118;17.948;2023-04-03T14:11:47;4.20;99.90
18593;DHT22;9426;54.118;17.948;2023-04-03T14:17:15;3.80;99.90
18593;DHT22;9426;54.118;17.948;2023-04-03T14:22:39;4.40;99.90
18593;DHT22;9426;54.118;17.948;2023-04-03T14:28:15;4.70;99.90
18593;DHT22;9426;54.118;17.948;2023-04-03T14:33:39;5.40;99.90
18593;DHT22;9426;54.118;17.948;2023-04-03T14:39:03;7.90;99.90
18593;DHT22;9426;54.118;17.948;2023-04-03T14:44:29;8.40;94.20
18593;DHT22;9426;54.118;17.948;2023-04-03T14:49:53;7.80;97.00
18593;DHT22;9426;54.118;17.948;2023-04-03T14:55:18;9.00;90.90
18593;DHT22;9426;54.118;17.948;2023-04-03T15:00:44;10.70;76.80
18593;DHT22;9426;54.118;17.948;2023-04-03T15:06:09;8.80;71.20
18593;DHT22;9426;54.118;17.948;2023-04-03T15:11:33;6.40;78.10
18593;DHT22;9426;54.118;17.948;2023-04-03T15:16:58;5.40;85.50
18593;DHT22;9426;54.118;17.948;2023-04-03T15:22:21;8.10;77.40
18593;DHT22;9426;54.118;17.948;2023-04-03T15:27:45;10.00;69.30
18593;DHT22;9426;54.118;17.948;2023-04-03T15:33:11;8.70;68.80
18593;DHT22;9426;54.118;17.948;2023-04-03T15:38:34;8.30;68.80
18593;DHT22;9426;54.118;17.948;2023-04-03T15:43:59;6.50;71.00
18593;DHT22;9426;54.118;17.948;2023-04-03T15:49:24;4.90;75.90
18593;DHT22;9426;54.118;17.948;2023-04-03T15:54:48;5.30;76.80
18593;DHT22;9426;54.118;17.948;2023-04-03T16:00:12;7.80;69.60
18593;DHT22;9426;54.118;17.948;2023-04-03T16:05:39;8.40;68.60
18593;DHT22;9426;54.118;17.948;2023-04-03T16:11:03;10.10;62.50
18593;DHT22;9426;54.118;17.948;2023-04-03T16:16:27;10.60;60.50
18593;DHT22;9426;54.118;17.948;2023-04-03T16:21:53;7.30;67.60
18593;DHT22;9426;54.118;17.948;2023-04-03T16:27:16;6.10;73.50
18593;DHT22;9426;54.118;17.948;2023-04-03T16:32:40;4.30;78.30
18593;DHT22;9426;54.118;17.948;2023-04-03T16:38:05;4.00;80.30
18593;DHT22;9426;54.118;17.948;2023-04-03T16:43:29;3.30;86.10
18593;DHT22;9426;54.118;17.948;2023-04-03T16:48:52;2.90;85.80
18593;DHT22;9426;54.118;17.948;2023-04-03T16:54:17;2.60;88.40
18593;DHT22;9426;54.118;17.948;2023-04-03T16:59:40;2.40;90.80
18593;DHT22;9426;54.118;17.948;2023-04-03T17:05:05;2.20;92.50
18593;DHT22;9426;54.118;17.948;2023-04-03T17:10:29;2.00;94.80
18593;DHT22;9426;54.118;17.948;2023-04-03T17:15:55;2.00;97.90
18593;DHT22;9426;54.118;17.948;2023-04-03T17:21:19;1.90;99.90
18593;DHT22;9426;54.118;17.948;2023-04-03T17:26:44;1.90;99.90
18593;DHT22;9426;54.118;17.948;2023-04-03T17:32:10;1.90;99.90
18593;DHT22;9426;54.118;17.948;2023-04-03T17:37:39;2.00;99.90
18593;DHT22;9426;54.118;17.948;2023-04-03T17:43:05;1.80;99.90
18593;DHT22;9426;54.118;17.948;2023-04-03T17:48:28;1.70;99.90
18593;DHT22;9426;54.118;17.948;2023-04-03T17:53:51;1.50;99.90
18593;DHT22;9426;54.118;17.948;2023-04-03T17:59:17;1.50;99.90
18593;DHT22;9426;54.118;17.948;2023-04-03T18:04:41;1.40;99.90
18593;DHT22;9426;54.118;17.948;2023-04-03T18:10:06;1.30;99.90
18593;DHT22;9426;54.118;17.948;2023-04-03T18:15:32;1.30;99.90
18593;DHT22;9426;54.118;17.948;2023-04-03T18:20:55;1.30;99.90
18593;DHT22;9426;54.118;17.948;2023-04-03T18:26:20;1.20;99.90
18593;DHT22;9426;54.118;17.948;2023-04-03T18:31:48;1.00;99.90
18593;DHT22;9426;54.118;17.948;2023-04-03T18:37:12;0.90;99.90
18593;DHT22;9426;54.118;17.948;2023-04-03T18:42:37;0.90;99.90
18593;DHT22;9426;54.118;17.948;2023-04-03T18:48:04;1.10;99.90
18593;DHT22;9426;54.118;17.948;2023-04-03T18:53:28;1.10;99.90
18593;DHT22;9426;54.118;17.948;2023-04-03T18:58:51;1.00;99.90
18593;DHT22;9426;54.118;17.948;2023-04-03T19:04:16;1.10;99.90
18593;DHT22;9426;54.118;17.948;2023-04-03T19:09:40;0.90;99.90
18593;DHT22;9426;54.118;17.948;2023-04-03T19:15:04;1.00;99.90
18593;DHT22;9426;54.118;17.948;2023-04-03T19:20:30;1.00;99.90
18593;DHT22;9426;54.118;17.948;2023-04-03T19:25:57;0.70;99.90
18593;DHT22;9426;54.118;17.948;2023-04-03T19:31:21;0.60;99.90
18593;DHT22;9426;54.118;17.948;2023-04-03T19:36:46;0.70;99.90
18593;DHT22;9426;54.118;17.948;2023-04-03T19:42:11;0.70;99.90
18593;DHT22;9426;54.118;17.948;2023-04-03T19:47:35;0.70;99.90
18593;DHT22;9426;54.118;17.948;2023-04-03T19:53:00;0.80;99.90
18593;DHT22;9426;54.118;17.948;2023-04-03T19:58:24;0.80;99.90
18593;DHT22;9426;54.118;17.948;2023-04-03T20:03:50;0.70;99.90
18593;DHT22;9426;54.118;17.948;2023-04-03T20:09:16;0.80;99.90
18593;DHT22;9426;54.118;17.948;2023-04-03T20:14:39;0.60;99.90
18593;DHT22;9426;54.118;17.948;2023-04-03T20:20:05;0.40;99.90
18593;DHT22;9426;54.118;17.948;2023-04-03T20:25:31;0.40;99.90
18593;DHT22;9426;54.118;17.948;2023-04-03T20:30:57;0.40;99.90
18593;DHT22;9426;54.118;17.948;2023-04-03T20:36:23;0.50;99.90
18593;DHT22;9426;54.118;17.948;2023-04-03T20:41:50;0.60;99.90
18593;DHT22;9426;54.118;17.948;2023-04-03T20:47:14;0.50;99.90
18593;DHT22;9426;54.118;17.948;2023-04-03T20:52:38;0.50;99.90
18593;DHT22;9426;54.118;17.948;2023-04-03T20:58:03;0.60;99.90
18593;DHT22;9426;54.118;17.948;2023-04-03T21:03:28;0.70;99.90
18593;DHT22;9426;54.118;17.948;2023-04-03T21:20:55;0.70;99.90
18593;DHT22;9426;54.118;17.948;2023-04-03T21:26:20;0.70;99.90
18593;DHT22;9426;54.118;17.948;2023-04-03T21:31:49;0.70;99.90
18593;DHT22;9426;54.118;17.948;2023-04-03T21:37:14;0.70;99.90
18593;DHT22;9426;54.118;17.948;2023-04-03T21:42:37;0.70;99.90
18593;DHT22;9426;54.118;17.948;2023-04-03T21:48:00;0.70;99.90
18593;DHT22;9426;54.118;17.948;2023-04-03T21:53:26;0.70;99.90
18593;DHT22;9426;54.118;17.948;2023-04-03T21:58:52;0.60;99.90
18593;DHT22;9426;54.118;17.948;2023-04-03T22:04:16;0.60;99.90
18593;DHT22;9426;54.118;17.948;2023-04-03T22:09:40;0.60;99.90
18593;DHT22;9426;54.118;17.948;2023-04-03T22:15:06;0.60;99.90
18593;DHT22;9426;54.118;17.948;2023-04-03T22:20:30;0.60;99.90
18593;DHT22;9426;54.118;17.948;2023-04-03T22:25:59;0.60;99.90
18593;DHT22;9426;54.118;17.948;2023-04-03T22:31:22;0.70;99.90
18593;DHT22;9426;54.118;17.948;2023-04-03T22:36:45;0.70;99.90
18593;DHT22;9426;54.118;17.948;2023-04-03T22:42:10;0.70;99.90
18593;DHT22;9426;54.118;17.948;2023-04-03T22:47:34;0.70;99.90
18593;DHT22;9426;54.118;17.948;2023-04-03T22:52:57;0.70;99.90
18593;DHT22;9426;54.118;17.948;2023-04-03T22:58:22;0.70;99.90
18593;DHT22;9426;54.118;17.948;2023-04-03T23:03:48;0.60;99.90
18593;DHT22;9426;54.118;17.948;2023-04-03T23:09:11;0.60;99.90
18593;DHT22;9426;54.118;17.948;2023-04-03T23:14:37;0.50;99.90
18593;DHT22;9426;54.118;17.948;2023-04-03T23:20:00;0.50;99.90
18593;DHT22;9426;54.118;17.948;2023-04-03T23:25:23;0.50;99.90
18593;DHT22;9426;54.118;17.948;2023-04-03T23:30:48;0.50;99.90
18593;DHT22;9426;54.118;17.948;2023-04-03T23:36:13;0.50;99.90
18593;DHT22;9426;54.118;17.948;2023-04-03T23:41:37;0.50;99.90
18593;DHT22;9426;54.118;17.948;2023-04-03T23:47:02;0.50;99.90
18593;DHT22;9426;54.118;17.948;2023-04-03T23:52:25;0.40;99.90
18593;DHT22;9426;54.118;17.948;2023-04-03T23:57:49;0.50;99.90
